Time;durP1;ratioP1;P1;durP2;ratioP2;P2;SDS_P1;SDS_P2;PMS_P1;PMS_P2;Temp;Humidity;BMP_temperature;BMP_pressure;BME280_temperature;BME280_humidity;BME280_pressure;Samples;Min_cycle;Max_cycle;Signal;HPM_P1;HPM_P2
2023/11/14 00:01:09;;;;;;;8.13;2.60;;;10.80;39.60;;;;;;5032605;28;20410;-40
2023/11/14 00:03:35;;;;;;;8.80;2.63;;;10.70;99.90;;;;;;5017104;28;20273;-40
2023/11/14 00:06:02;;;;;;;7.20;2.27;;;10.70;99.90;;;;;;5016845;28;20211;-39
2023/11/14 00:08:28;;;;;;;11.90;2.60;;;10.70;99.90;;;;;;5017103;28;20175;-39
2023/11/14 00:10:54;;;;;;;5.13;2.30;;;10.60;99.90;;;;;;5016262;28;20752;-39
2023/11/14 00:13:20;;;;;;;7.37;3.00;;;10.50;99.90;;;;;;5016841;28;20241;-39
2023/11/14 00:15:45;;;;;;;9.27;2.77;;;10.50;99.90;;;;;;5017490;28;20712;-39
2023/11/14 00:18:11;;;;;;;6.50;2.13;;;10.50;99.90;;;;;;5016744;28;20180;-38
2023/11/14 00:20:37;;;;;;;5.60;2.20;;;10.60;99.90;;;;;;5017696;28;20636;-40
2023/11/14 00:23:03;;;;;;;10.53;2.83;;;10.60;99.90;;;;;;5032600;28;20264;-40
2023/11/14 00:25:29;;;;;;;10.17;2.70;;;10.50;99.90;;;;;;5017476;28;20473;-38
2023/11/14 00:27:54;;;;;;;12.80;3.20;;;10.50;99.90;;;;;;5032765;28;20183;-43
2023/11/14 00:30:20;;;;;;;8.90;3.00;;;10.50;1.00;;;;;;5017455;28;20180;-39
2023/11/14 00:32:45;;;;;;;11.63;2.47;;;10.40;1.00;;;;;;5016987;28;20227;-39
2023/11/14 00:35:11;;;;;;;8.17;2.63;;;10.50;1.00;;;;;;5016235;28;20183;-38
2023/11/14 00:37:37;;;;;;;3.80;2.00;;;10.50;1.00;;;;;;5016907;28;20183;-41
2023/11/14 00:40:03;;;;;;;6.70;2.70;;;10.50;1.00;;;;;;5016966;28;20414;-42
2023/11/14 00:42:29;;;;;;;8.03;2.83;;;10.50;1.00;;;;;;5016644;28;20198;-40
2023/11/14 00:44:55;;;;;;;7.53;2.30;;;10.90;1.00;;;;;;5016060;28;20568;-41
2023/11/14 00:47:21;;;;;;;6.40;2.37;;;11.00;1.00;;;;;;5015834;28;20418;-41
2023/11/14 00:49:47;;;;;;;7.37;2.33;;;11.20;99.90;;;;;;5016407;28;20541;-39
2023/11/14 00:52:14;;;;;;;5.40;2.20;;;11.30;99.90;;;;;;5015282;28;20417;-41
2023/11/14 00:54:40;;;;;;;9.17;2.13;;;11.20;61.90;;;;;;5017237;28;20222;-40
2023/11/14 00:57:06;;;;;;;5.47;2.17;;;11.10;22.40;;;;;;5022335;28;20727;-40
2023/11/14 00:59:32;;;;;;;6.70;2.40;;;11.00;7.20;;;;;;5023119;28;20442;-39
2023/11/14 01:01:59;;;;;;;5.27;2.40;;;10.90;7.50;;;;;;5022843;28;20189;-40
2023/11/14 01:04:25;;;;;;;6.00;2.20;;;10.90;32.90;;;;;;5020876;28;20433;-39
2023/11/14 01:06:51;;;;;;;5.83;2.50;;;10.90;50.00;;;;;;5035810;28;20491;-39
2023/11/14 01:09:17;;;;;;;8.93;3.33;;;10.90;99.90;;;;;;5020279;28;20521;-40
2023/11/14 01:11:42;;;;;;;9.37;2.30;;;10.70;99.90;;;;;;5019958;28;20236;-41
2023/11/14 01:14:08;;;;;;;6.63;2.60;;;10.70;99.90;;;;;;5019748;28;20302;-39
2023/11/14 01:16:34;;;;;;;4.77;2.00;;;10.80;99.90;;;;;;5019789;28;20576;-41
2023/11/14 01:19:00;;;;;;;6.50;2.50;;;10.70;99.90;;;;;;5020725;28;20430;-40
2023/11/14 01:21:26;;;;;;;9.47;2.03;;;10.70;99.90;;;;;;5020241;28;20430;-40
2023/11/14 01:23:51;;;;;;;5.83;2.27;;;10.60;99.90;;;;;;5019444;28;20262;-39
2023/11/14 01:26:17;;;;;;;9.77;2.67;;;10.60;99.90;;;;;;5035246;28;20372;-40
2023/11/14 01:28:43;;;;;;;5.80;2.43;;;10.60;99.90;;;;;;5020018;28;20568;-38
2023/11/14 01:31:20;;;;;;;6.70;2.30;;;10.60;99.90;;;;;;5034932;28;20402;-38
2023/11/14 01:33:45;;;;;;;5.37;2.73;;;10.60;99.90;;;;;;5019964;28;20543;-38
2023/11/14 01:36:11;;;;;;;8.50;3.20;;;10.60;99.90;;;;;;5019118;28;20458;-39
2023/11/14 01:38:37;;;;;;;4.67;2.20;;;10.60;99.90;;;;;;5018470;28;20242;-39
2023/11/14 01:41:03;;;;;;;11.20;3.00;;;10.60;99.90;;;;;;5019166;28;20488;-40
2023/11/14 01:43:28;;;;;;;9.33;2.97;;;10.70;99.90;;;;;;5034910;28;20213;-40
2023/11/14 01:45:55;;;;;;;5.53;3.13;;;10.70;99.90;;;;;;5019213;28;20203;-39
2023/11/14 01:48:21;;;;;;;6.37;3.07;;;10.60;99.90;;;;;;5017225;28;20214;-40
2023/11/14 01:50:47;;;;;;;7.27;2.30;;;10.60;99.90;;;;;;5016444;28;20876;-39
2023/11/14 01:53:13;;;;;;;10.00;2.43;;;10.50;99.90;;;;;;5018691;28;20191;-41
2023/11/14 01:55:38;;;;;;;9.83;2.80;;;10.50;99.90;;;;;;5018979;28;20529;-40
2023/11/14 01:58:04;;;;;;;9.67;2.87;;;10.50;99.90;;;;;;5019517;28;20482;-40
2023/11/14 02:00:30;;;;;;;8.97;2.70;;;10.50;99.90;;;;;;5019462;28;20191;-39
2023/11/14 02:02:56;;;;;;;7.40;2.13;;;10.40;99.90;;;;;;5018423;28;20199;-42
2023/11/14 02:05:23;;;;;;;10.17;2.67;;;10.40;99.90;;;;;;5017859;28;20478;-41
2023/11/14 02:07:52;;;;;;;6.27;2.90;;;10.40;99.90;;;;;;5017469;28;20434;-38
2023/11/14 02:10:18;;;;;;;9.77;2.97;;;10.30;99.90;;;;;;5019243;28;20414;-40
2023/11/14 02:12:43;;;;;;;13.83;2.60;;;10.40;99.90;;;;;;5019019;28;20421;-38
2023/11/14 02:15:10;;;;;;;12.77;4.00;;;10.30;99.90;;;;;;5019057;28;20269;-40
2023/11/14 02:17:36;;;;;;;9.83;2.33;;;10.30;99.90;;;;;;5019460;28;20192;-39
2023/11/14 02:20:03;;;;;;;5.50;3.00;;;10.30;99.90;;;;;;5019104;28;20937;-39
2023/11/14 02:22:28;;;;;;;6.73;2.40;;;10.30;99.90;;;;;;5018876;28;20179;-41
2023/11/14 02:24:57;;;;;;;7.07;2.37;;;10.30;99.90;;;;;;5018691;28;20914;-39
2023/11/14 02:27:23;;;;;;;14.03;2.93;;;10.30;99.90;;;;;;5017642;28;20434;-39
2023/11/14 02:29:50;;;;;;;6.80;2.70;;;10.20;99.90;;;;;;5018120;28;20858;-39
2023/11/14 02:32:16;;;;;;;5.77;2.43;;;10.20;99.90;;;;;;5018026;28;20234;-38
2023/11/14 02:34:42;;;;;;;6.33;2.33;;;10.20;99.90;;;;;;5019089;28;20426;-45
2023/11/14 02:37:08;;;;;;;11.13;4.23;;;10.10;99.90;;;;;;5018948;28;20175;-39
2023/11/14 02:39:34;;;;;;;8.03;2.50;;;10.10;99.90;;;;;;5018391;28;20678;-41
2023/11/14 02:42:00;;;;;;;8.20;2.20;;;10.10;99.90;;;;;;5018608;28;20440;-39
2023/11/14 02:44:27;;;;;;;7.33;2.70;;;10.10;99.90;;;;;;5018651;28;20182;-40
2023/11/14 02:46:53;;;;;;;7.67;2.50;;;10.10;99.90;;;;;;5018924;28;20190;-39
2023/11/14 02:49:20;;;;;;;10.63;4.90;;;10.10;99.90;;;;;;5018310;28;20406;-42
2023/11/14 02:51:45;;;;;;;5.23;2.37;;;10.00;1.00;;;;;;5017104;28;20800;-40
2023/11/14 02:54:11;;;;;;;5.93;2.30;;;10.00;1.00;;;;;;5017031;28;20434;-41
2023/11/14 02:56:37;;;;;;;5.03;2.30;;;10.00;1.00;;;;;;5016662;28;20198;-39
2023/11/14 02:59:04;;;;;;;6.00;3.10;;;10.00;1.00;;;;;;5016498;28;20431;-39
2023/11/14 03:01:29;;;;;;;6.70;2.37;;;10.00;1.00;;;;;;5015647;28;20179;-39
2023/11/14 03:03:55;;;;;;;10.13;2.80;;;10.00;1.00;;;;;;5016917;28;20417;-39
2023/11/14 03:06:21;;;;;;;9.23;2.47;;;9.90;1.00;;;;;;5017384;28;20218;-40
2023/11/14 03:08:47;;;;;;;9.90;3.13;;;9.90;1.00;;;;;;5016953;28;20606;-40
2023/11/14 03:11:13;;;;;;;3.50;2.10;;;9.90;1.00;;;;;;5017544;28;20183;-38
2023/11/14 03:13:38;;;;;;;7.20;2.40;;;9.90;1.00;;;;;;5018264;28;20430;-42
2023/11/14 03:16:04;;;;;;;5.13;2.27;;;9.90;1.00;;;;;;5017920;28;20209;-37
2023/11/14 03:18:30;;;;;;;8.43;2.37;;;9.90;1.00;;;;;;5017394;28;20241;-40
2023/11/14 03:20:55;;;;;;;6.30;2.50;;;9.80;1.00;;;;;;5017238;28;20190;-41
2023/11/14 03:23:21;;;;;;;10.00;2.63;;;9.80;1.00;;;;;;5017919;28;20501;-39
2023/11/14 03:25:47;;;;;;;7.33;2.50;;;9.80;1.00;;;;;;5017147;28;20222;-39
2023/11/14 03:28:12;;;;;;;5.80;2.87;;;9.80;1.00;;;;;;5016967;28;20203;-40
2023/11/14 03:30:38;;;;;;;6.30;2.20;;;9.80;1.00;;;;;;5017769;28;20183;-39
2023/11/14 03:33:04;;;;;;;5.87;2.17;;;9.80;1.00;;;;;;5017163;28;20234;-41
2023/11/14 03:35:29;;;;;;;8.47;3.07;;;9.70;1.00;;;;;;5016834;28;20652;-39
2023/11/14 03:37:55;;;;;;;7.63;2.90;;;9.70;1.00;;;;;;5017408;28;20222;-43
2023/11/14 03:40:21;;;;;;;7.73;2.63;;;9.70;1.00;;;;;;5017132;28;20190;-43
2023/11/14 03:42:47;;;;;;;9.80;2.57;;;9.90;1.00;;;;;;5017120;28;20445;-43
2023/11/14 03:45:13;;;;;;;6.33;2.67;;;10.30;1.00;;;;;;5016201;28;20473;-44
2023/11/14 03:47:38;;;;;;;8.37;2.70;;;10.40;1.00;;;;;;5016342;28;20187;-41
2023/11/14 03:50:07;;;;;;;11.60;3.20;;;10.70;1.00;;;;;;5016756;28;20415;-42
2023/11/14 03:52:33;;;;;;;7.20;3.13;;;10.80;1.00;;;;;;5014973;28;20527;-44
2023/11/14 03:54:59;;;;;;;9.10;2.30;;;11.20;1.00;;;;;;5017016;28;20805;-40
2023/11/14 03:57:25;;;;;;;7.13;2.33;;;11.30;1.00;;;;;;5016475;28;20500;-39
2023/11/14 03:59:50;;;;;;;4.80;2.13;;;11.10;99.90;;;;;;5016607;28;20191;-38
2023/11/14 04:02:16;;;;;;;4.73;1.73;;;10.90;99.90;;;;;;5016883;28;20288;-38
2023/11/14 04:04:42;;;;;;;4.70;2.07;;;10.70;99.90;;;;;;5015086;28;20425;-43
2023/11/14 04:07:09;;;;;;;4.23;2.70;;;10.60;99.90;;;;;;5015263;28;20175;-40
2023/11/14 04:09:35;;;;;;;5.93;2.27;;;10.40;99.90;;;;;;5016434;28;20693;-39
2023/11/14 04:12:02;;;;;;;4.80;2.13;;;10.30;99.90;;;;;;5014643;28;20433;-39
2023/11/14 04:14:28;;;;;;;6.57;2.60;;;10.30;99.90;;;;;;5016493;28;20180;-38
2023/11/14 04:16:54;;;;;;;4.87;2.13;;;10.20;99.90;;;;;;5015311;28;20496;-42
2023/11/14 04:19:20;;;;;;;7.03;2.40;;;10.10;99.90;;;;;;5014948;28;20206;-40
2023/11/14 04:21:46;;;;;;;7.33;2.37;;;10.10;99.90;;;;;;5014746;28;20505;-40
2023/11/14 04:24:14;;;;;;;6.40;2.63;;;10.00;99.90;;;;;;5014886;28;20179;-37
2023/11/14 04:26:42;;;;;;;5.10;2.17;;;10.00;99.90;;;;;;5015243;28;20214;-39
2023/11/14 04:29:08;;;;;;;9.10;4.47;;;9.90;99.90;;;;;;5014617;28;20488;-41
2023/11/14 04:31:33;;;;;;;24.57;16.23;;;10.00;99.90;;;;;;5015231;28;20513;-37
2023/11/14 04:34:00;;;;;;;18.40;11.33;;;9.90;99.90;;;;;;5016102;28;20183;-38
2023/11/14 04:36:25;;;;;;;7.07;4.20;;;9.90;99.90;;;;;;5016417;28;20214;-39
2023/11/14 04:38:51;;;;;;;9.40;3.50;;;9.90;99.90;;;;;;5015347;28;20473;-39
2023/11/14 04:41:18;;;;;;;5.87;2.70;;;9.90;99.90;;;;;;5015846;28;20186;-41
2023/11/14 04:43:44;;;;;;;4.60;2.07;;;9.80;99.90;;;;;;5014798;28;20187;-38
2023/11/14 04:46:09;;;;;;;4.87;2.63;;;9.80;99.90;;;;;;5014129;28;20464;-41
2023/11/14 04:48:35;;;;;;;4.83;2.20;;;9.70;99.90;;;;;;5012614;28;20513;-39
2023/11/14 04:51:01;;;;;;;5.97;3.30;;;9.70;1.00;;;;;;5029473;28;20466;-40
2023/11/14 04:53:27;;;;;;;7.17;2.60;;;9.70;1.00;;;;;;5017496;28;20186;-38
2023/11/14 04:55:52;;;;;;;4.63;3.00;;;9.70;99.90;;;;;;5016143;28;20425;-42
2023/11/14 04:58:18;;;;;;;6.23;3.10;;;9.70;99.90;;;;;;5013383;28;20183;-40
2023/11/14 05:00:43;;;;;;;3.60;2.60;;;9.80;99.90;;;;;;5016000;28;20258;-40
2023/11/14 05:03:09;;;;;;;3.60;2.00;;;9.70;99.90;;;;;;5014919;28;20268;-39
2023/11/14 05:05:35;;;;;;;4.50;2.70;;;9.70;99.90;;;;;;5014549;28;20230;-37
2023/11/14 05:08:01;;;;;;;3.93;2.23;;;9.70;99.90;;;;;;5013621;28;20190;-46
2023/11/14 05:10:27;;;;;;;5.37;2.10;;;9.70;99.90;;;;;;5012358;28;20679;-39
2023/11/14 05:12:53;;;;;;;2.93;1.73;;;9.60;99.90;;;;;;5013408;28;20740;-45
2023/11/14 05:15:19;;;;;;;10.30;3.20;;;9.70;99.90;;;;;;5013370;28;20201;-39
2023/11/14 05:17:44;;;;;;;4.43;2.40;;;9.70;99.90;;;;;;5013687;28;20576;-40
2023/11/14 05:20:11;;;;;;;5.53;2.30;;;9.60;99.90;;;;;;5013743;28;20278;-39
2023/11/14 05:22:38;;;;;;;4.23;2.07;;;9.60;99.90;;;;;;5013582;28;20191;-41
2023/11/14 05:25:05;;;;;;;5.77;2.10;;;9.60;99.90;;;;;;5014020;28;20769;-39
2023/11/14 05:27:30;;;;;;;4.87;1.60;;;9.70;99.90;;;;;;5013068;28;20500;-40
2023/11/14 05:29:56;;;;;;;5.00;1.70;;;9.70;99.90;;;;;;5014495;28;20430;-39
2023/11/14 05:32:22;;;;;;;7.10;2.20;;;9.70;22.40;;;;;;5011761;28;20549;-42
2023/11/14 05:34:48;;;;;;;6.10;2.27;;;9.70;48.40;;;;;;5027580;28;20203;-39
2023/11/14 05:37:13;;;;;;;7.00;2.00;;;9.60;56.00;;;;;;5010819;28;20513;-39
2023/11/14 05:39:39;;;;;;;3.67;1.80;;;9.60;38.40;;;;;;5011511;28;20180;-39
2023/11/14 05:42:05;;;;;;;5.10;2.07;;;9.60;1.00;;;;;;5014567;28;20194;-38
2023/11/14 05:44:32;;;;;;;4.93;2.23;;;9.60;1.00;;;;;;5015715;28;20218;-40
2023/11/14 05:46:57;;;;;;;7.67;2.43;;;9.60;1.00;;;;;;5015911;28;20426;-38
2023/11/14 05:49:23;;;;;;;7.67;2.47;;;9.60;1.00;;;;;;5017443;28;20417;-38
2023/11/14 05:51:49;;;;;;;5.50;2.57;;;9.70;1.00;;;;;;5017002;28;20645;-37
2023/11/14 05:54:14;;;;;;;6.63;2.40;;;9.70;1.00;;;;;;5016092;28;20430;-38
2023/11/14 05:56:40;;;;;;;4.67;1.73;;;9.70;1.00;;;;;;5016341;28;20183;-39
2023/11/14 05:59:08;;;;;;;3.80;2.07;;;9.60;1.00;;;;;;5015206;28;20428;-40
2023/11/14 06:01:34;;;;;;;6.80;2.13;;;9.60;1.00;;;;;;5015762;28;20248;-39
2023/11/14 06:04:00;;;;;;;6.37;2.00;;;9.60;1.00;;;;;;5015658;28;20422;-39
2023/11/14 06:06:26;;;;;;;8.30;2.13;;;9.60;1.00;;;;;;5016187;28;20290;-39
2023/11/14 06:08:51;;;;;;;6.00;2.80;;;9.50;1.00;;;;;;5013118;28;20367;-39
2023/11/14 06:11:17;;;;;;;14.07;12.43;;;9.50;1.00;;;;;;5011654;28;20187;-40
2023/11/14 06:13:46;;;;;;;5.90;3.90;;;9.50;1.00;;;;;;5014646;28;20184;-41
2023/11/14 06:16:12;;;;;;;11.30;3.10;;;9.40;1.00;;;;;;5014938;28;20677;-39
2023/11/14 06:18:37;;;;;;;6.40;2.50;;;9.40;1.00;;;;;;5012774;28;20446;-37
2023/11/14 06:21:03;;;;;;;5.10;2.07;;;9.50;1.00;;;;;;5011200;28;20209;-37
2023/11/14 06:23:29;;;;;;;4.80;2.83;;;9.50;1.00;;;;;;5009770;28;20210;-47
2023/11/14 06:25:56;;;;;;;3.93;2.67;;;9.50;10.50;;;;;;5009461;28;21184;-40
2023/11/14 06:28:22;;;;;;;6.57;3.27;;;9.40;30.30;;;;;;5028490;28;20182;-40
2023/11/14 06:30:49;;;;;;;5.90;2.10;;;9.40;99.90;;;;;;5014604;28;20421;-40
2023/11/14 06:33:15;;;;;;;4.37;2.00;;;9.40;99.90;;;;;;5032103;28;20581;-38
2023/11/14 06:35:40;;;;;;;2.93;1.70;;;9.50;99.90;;;;;;5033726;28;20711;-39
2023/11/14 06:38:06;;;;;;;4.40;2.07;;;9.50;99.90;;;;;;5028577;28;20202;-40
2023/11/14 06:40:32;;;;;;;4.10;2.67;;;9.50;99.90;;;;;;5028805;28;20195;-37
2023/11/14 06:42:58;;;;;;;6.23;2.00;;;9.50;99.90;;;;;;5031859;28;20202;-37
2023/11/14 06:45:23;;;;;;;6.23;2.40;;;9.50;99.90;;;;;;5032764;28;20246;-38
2023/11/14 06:47:49;;;;;;;4.07;1.87;;;9.40;99.90;;;;;;5033624;28;20272;-37
2023/11/14 06:50:15;;;;;;;4.47;1.67;;;9.50;99.90;;;;;;5024234;28;20604;-38
2023/11/14 06:52:41;;;;;;;4.53;1.70;;;9.50;99.90;;;;;;5012525;28;20500;-37
2023/11/14 06:55:07;;;;;;;3.37;2.40;;;9.50;99.90;;;;;;5025823;28;20194;-38
2023/11/14 06:57:32;;;;;;;6.67;1.60;;;9.60;99.90;;;;;;5016351;28;20435;-38
2023/11/14 07:00:00;;;;;;;4.47;1.70;;;9.60;99.90;;;;;;5034893;28;20449;-38
2023/11/14 07:02:26;;;;;;;4.90;1.40;;;9.60;99.90;;;;;;5035600;28;20186;-37
2023/11/14 07:04:53;;;;;;;3.67;1.53;;;9.70;80.00;;;;;;5028281;28;20434;-38
2023/11/14 07:07:19;;;;;;;4.37;1.70;;;9.70;80.10;;;;;;5016010;28;20764;-41
2023/11/14 07:09:44;;;;;;;5.73;1.60;;;9.70;61.00;;;;;;5014177;28;20437;-38
2023/11/14 07:12:10;;;;;;;3.23;1.70;;;9.70;42.30;;;;;;5015308;28;20699;-40
2023/11/14 07:14:36;;;;;;;3.07;1.70;;;9.70;53.60;;;;;;5017068;28;20728;-39
2023/11/14 07:17:01;;;;;;;3.80;1.77;;;9.70;57.20;;;;;;5035065;28;20340;-36
2023/11/14 07:19:27;;;;;;;3.80;1.70;;;9.70;1.00;;;;;;5026970;28;20242;-40
2023/11/14 07:21:55;;;;;;;1.83;1.33;;;9.80;1.00;;;;;;5012861;28;20175;-39
2023/11/14 07:24:21;;;;;;;6.00;2.00;;;9.80;1.00;;;;;;5013328;28;20440;-39
2023/11/14 07:26:47;;;;;;;2.70;1.50;;;9.80;1.00;;;;;;5027383;28;20476;-42
2023/11/14 07:29:13;;;;;;;3.63;1.87;;;9.90;1.00;;;;;;5029196;28;20807;-45
2023/11/14 08:47:26;;;;;;;5.73;1.30;;;10.60;1.00;;;;;;6105827;22;1381609;-58
2023/11/14 08:49:52;;;;;;;4.60;1.13;;;10.60;99.90;;;;;;6163448;23;20230;-56
2023/11/14 08:52:18;;;;;;;6.63;1.70;;;10.70;99.90;;;;;;6162663;23;20130;-57
2023/11/14 08:54:44;;;;;;;4.57;1.30;;;10.90;99.90;;;;;;6163676;23;20135;-53
2023/11/14 08:57:09;;;;;;;3.37;1.23;;;11.30;1.00;;;;;;6164130;23;20409;-56
2023/11/14 08:59:35;;;;;;;4.60;1.20;;;11.50;1.00;;;;;;6163253;23;20155;-52
2023/11/14 09:02:01;;;;;;;2.80;1.10;;;11.80;99.90;;;;;;6162819;23;20296;-56
2023/11/14 09:04:27;;;;;;;4.17;1.80;;;11.80;28.20;;;;;;6161713;23;20437;-53
2023/11/14 09:06:52;;;;;;;3.03;1.23;;;11.50;1.00;;;;;;6162199;23;20144;-54
2023/11/14 09:09:20;;;;;;;4.83;1.63;;;11.10;99.90;;;;;;6163834;23;20147;-57
2023/11/14 09:11:46;;;;;;;4.23;1.90;;;10.90;90.90;;;;;;6164154;23;20155;-56
2023/11/14 09:14:12;;;;;;;3.73;2.80;;;10.70;1.00;;;;;;6164176;23;20831;-57
2023/11/14 09:16:38;;;;;;;2.90;1.20;;;10.60;1.00;;;;;;6163620;23;20496;-56
2023/11/14 09:19:04;;;;;;;4.57;1.50;;;10.40;1.00;;;;;;6164175;23;20430;-57
2023/11/14 09:21:30;;;;;;;5.60;1.50;;;10.40;99.90;;;;;;6163682;23;20828;-57
2023/11/14 09:23:57;;;;;;;5.10;1.13;;;10.50;99.90;;;;;;6159915;23;20422;-56
2023/11/14 09:26:24;;;;;;;1.70;1.00;;;10.60;1.00;;;;;;6156693;23;20477;-61
2023/11/14 09:28:50;;;;;;;4.23;1.37;;;10.60;1.00;;;;;;6155100;23;20410;-57
2023/11/14 09:31:16;;;;;;;3.40;1.10;;;10.50;1.00;;;;;;6154889;23;20918;-57
2023/11/14 09:33:45;;;;;;;2.50;1.03;;;10.60;1.00;;;;;;6157181;23;20415;-57
2023/11/14 09:36:11;;;;;;;3.53;1.20;;;10.60;1.00;;;;;;6156172;23;20868;-56
2023/11/14 09:38:38;;;;;;;3.97;1.37;;;10.60;99.90;;;;;;6155151;23;20378;-58
2023/11/14 09:41:05;;;;;;;4.27;1.50;;;10.70;99.90;;;;;;6155211;23;20159;-58
2023/11/14 09:43:33;;;;;;;1.83;0.87;;;10.60;99.90;;;;;;6156170;23;20442;-54
2023/11/14 09:45:59;;;;;;;12.13;2.87;;;10.60;1.00;;;;;;6155902;23;20418;-58
2023/11/14 09:48:26;;;;;;;2.33;1.20;;;10.60;99.90;;;;;;6154446;23;20446;-57
2023/11/14 09:50:53;;;;;;;3.47;1.13;;;10.60;99.90;;;;;;6152864;23;20419;-57
2023/11/14 09:53:23;;;;;;;3.90;1.83;;;10.50;99.90;;;;;;6153554;23;20421;-53
2023/11/14 09:55:53;;;;;;;1.50;1.30;;;10.50;99.90;;;;;;6156057;23;20471;-57
2023/11/14 09:58:22;;;;;;;3.50;1.20;;;10.50;97.90;;;;;;6154649;23;20498;-56
2023/11/14 10:00:48;;;;;;;4.77;1.20;;;10.50;99.90;;;;;;6154563;23;20460;-56
2023/11/14 10:03:14;;;;;;;5.37;1.07;;;10.60;1.00;;;;;;6155525;23;20446;-56
2023/11/14 10:05:41;;;;;;;3.93;1.43;;;10.50;99.90;;;;;;6154740;23;20421;-54
2023/11/14 10:08:08;;;;;;;3.13;1.17;;;10.50;26.60;;;;;;6155578;23;20366;-58
2023/11/14 10:10:34;;;;;;;2.60;1.03;;;10.50;99.90;;;;;;6155019;23;20397;-56
2023/11/14 10:13:00;;;;;;;1.87;1.20;;;10.50;99.90;;;;;;6156394;23;20398;-56
2023/11/14 10:15:32;;;;;;;6.40;1.40;;;10.50;99.90;;;;;;6155518;23;20673;-55
2023/11/14 10:17:59;;;;;;;3.70;1.40;;;10.40;99.90;;;;;;6156656;23;20383;-56
2023/11/14 10:20:29;;;;;;;1.47;1.00;;;10.40;99.90;;;;;;6155728;23;20392;-58
2023/11/14 10:22:58;;;;;;;5.27;1.33;;;10.50;99.90;;;;;;6152937;23;20892;-57
2023/11/14 10:25:32;;;;;;;2.83;1.40;;;10.40;99.90;;;;;;6154979;23;20809;-58
2023/11/14 10:28:05;;;;;;;3.40;1.30;;;10.50;99.90;;;;;;6154511;23;20386;-58
2023/11/14 10:30:42;;;;;;;2.40;1.30;;;10.50;99.90;;;;;;6155816;23;20777;-56
2023/11/14 10:33:09;;;;;;;3.40;1.17;;;10.50;99.90;;;;;;6155619;23;20393;-58
2023/11/14 10:35:38;;;;;;;3.03;1.17;;;10.50;99.90;;;;;;6153101;23;20457;-57
2023/11/14 10:38:18;;;;;;;3.70;1.63;;;10.60;99.90;;;;;;6155008;23;20391;-55
2023/11/14 10:40:51;;;;;;;5.40;1.20;;;10.60;92.30;;;;;;6155437;23;20828;-56
2023/11/14 10:43:32;;;;;;;1.90;1.23;;;10.60;82.70;;;;;;6155343;23;20430;-56
2023/11/14 10:49:27;;;;;;;1.80;1.30;;;10.70;99.90;;;;;;6125654;23;20841;-58
2023/11/14 10:51:54;;;;;;;2.20;1.30;;;10.50;99.90;;;;;;6125193;23;20409;-57
2023/11/14 10:54:20;;;;;;;2.60;1.13;;;10.60;99.90;;;;;;6124993;23;21019;-56
2023/11/14 10:56:46;;;;;;;3.60;1.40;;;10.50;1.00;;;;;;6126227;23;20443;-55
2023/11/14 10:59:14;;;;;;;3.33;1.23;;;10.60;1.00;;;;;;6126522;23;20554;-57
2023/11/14 11:01:47;;;;;;;3.00;1.00;;;10.50;1.00;;;;;;6126935;23;20811;-58
2023/11/14 11:04:18;;;;;;;3.87;2.30;;;10.70;1.00;;;;;;6102333;23;20415;-57
2023/11/14 11:06:44;;;;;;;4.60;1.37;;;10.80;99.90;;;;;;6126499;23;20719;-57
2023/11/14 11:09:11;;;;;;;2.20;1.10;;;10.80;99.90;;;;;;6127010;23;20387;-55
2023/11/14 11:11:42;;;;;;;2.90;1.10;;;10.90;99.90;;;;;;6125717;23;20396;-57
2023/11/14 11:14:10;;;;;;;3.23;1.33;;;10.90;65.40;;;;;;6126618;23;20371;-57
2023/11/14 11:16:39;;;;;;;4.60;1.80;;;11.00;99.90;;;;;;6099240;23;20376;-57
2023/11/14 11:19:06;;;;;;;3.90;1.60;;;11.00;95.20;;;;;;6125473;23;20478;-58
2023/11/14 11:21:32;;;;;;;4.00;1.47;;;11.00;99.90;;;;;;6124224;23;20439;-58
2023/11/14 11:24:12;;;;;;;3.30;1.90;;;11.20;99.90;;;;;;6125793;23;20388;-56
2023/11/14 11:27:20;;;;;;;8.00;1.37;;;11.30;1.00;;;;;;6125795;23;20701;-58
2023/11/14 11:29:59;;;;;;;2.10;1.57;;;11.40;1.00;;;;;;6125893;23;20372;-58
2023/11/14 11:32:32;;;;;;;3.07;1.57;;;11.40;99.90;;;;;;6099866;23;20384;-56
2023/11/14 11:35:18;;;;;;;3.27;1.70;;;11.50;99.90;;;;;;6126001;23;20352;-57
2023/11/14 11:37:52;;;;;;;4.80;1.73;;;11.50;91.20;;;;;;6125376;23;20367;-56
2023/11/14 11:40:21;;;;;;;2.20;1.20;;;11.60;1.00;;;;;;6123927;23;20372;-57
2023/11/14 11:42:48;;;;;;;2.90;1.47;;;11.60;1.00;;;;;;6124431;23;20431;-58
2023/11/14 11:45:32;;;;;;;3.53;1.63;;;11.60;1.00;;;;;;6123904;23;20482;-56
2023/11/14 11:48:00;;;;;;;4.80;1.57;;;11.60;1.00;;;;;;6134526;23;20425;-58
2023/11/14 11:50:33;;;;;;;4.40;1.73;;;11.50;1.00;;;;;;6153771;23;20359;-58
2023/11/14 11:53:04;;;;;;;4.13;2.90;;;11.40;1.00;;;;;;6154333;23;20359;-57
2023/11/14 11:55:33;;;;;;;2.70;2.23;;;11.30;2.80;;;;;;6155039;23;20387;-56
2023/11/14 11:58:05;;;;;;;3.90;1.90;;;11.20;99.90;;;;;;6154310;23;20433;-58
2023/11/14 12:00:31;;;;;;;6.27;2.33;;;11.20;99.90;;;;;;6154127;23;20403;-57
2023/11/14 12:03:02;;;;;;;6.87;1.93;;;11.20;99.90;;;;;;6153794;23;20430;-59
2023/11/14 12:05:29;;;;;;;6.47;2.70;;;11.20;99.90;;;;;;6126906;23;20387;-56
2023/11/14 12:07:56;;;;;;;5.67;2.07;;;11.20;99.90;;;;;;6153103;23;20359;-58
2023/11/14 12:10:22;;;;;;;4.27;1.20;;;11.10;84.30;;;;;;6152755;23;20384;-56
2023/11/14 12:12:51;;;;;;;4.50;2.10;;;11.10;1.00;;;;;;6154507;23;20419;-59
2023/11/14 12:15:17;;;;;;;3.57;1.67;;;11.20;1.00;;;;;;6126974;23;20497;-58
2023/11/14 12:17:54;;;;;;;2.87;1.57;;;11.30;1.00;;;;;;6151329;23;20387;-59
2023/11/14 12:20:21;;;;;;;3.70;1.80;;;11.40;99.90;;;;;;6151977;23;20358;-57
2023/11/14 12:22:52;;;;;;;6.37;2.27;;;11.40;1.00;;;;;;6151001;23;20406;-58
2023/11/14 12:25:18;;;;;;;2.83;1.20;;;11.50;46.70;;;;;;6152237;23;20387;-57
2023/11/14 12:27:49;;;;;;;3.73;1.40;;;11.60;1.00;;;;;;6152054;23;20998;-57
2023/11/14 12:30:17;;;;;;;4.03;1.60;;;11.50;1.00;;;;;;6153008;23;20395;-57
2023/11/14 12:32:42;;;;;;;3.20;1.20;;;11.40;1.00;;;;;;6153790;23;20386;-57
2023/11/14 12:35:09;;;;;;;2.20;1.23;;;11.40;99.90;;;;;;6153935;23;20423;-56
2023/11/14 12:37:37;;;;;;;4.87;1.30;;;11.40;99.90;;;;;;6154697;23;20791;-56
2023/11/14 12:40:11;;;;;;;5.90;1.50;;;11.40;99.90;;;;;;6128471;23;20729;-58
2023/11/14 12:42:37;;;;;;;2.50;1.27;;;11.40;99.90;;;;;;6127889;23;20437;-58
2023/11/14 12:45:10;;;;;;;2.80;1.20;;;11.40;99.90;;;;;;6152845;23;20394;-58
2023/11/14 12:47:39;;;;;;;5.63;1.87;;;11.40;99.90;;;;;;6130034;23;20434;-59
2023/11/14 12:50:11;;;;;;;5.90;2.80;;;11.40;1.00;;;;;;6154273;23;20390;-57
2023/11/14 12:52:40;;;;;;;4.17;1.70;;;11.40;1.00;;;;;;6154582;23;20391;-58
2023/11/14 12:55:07;;;;;;;2.80;1.63;;;11.40;1.00;;;;;;6154320;23;20382;-57
2023/11/14 12:57:35;;;;;;;5.43;1.40;;;11.40;1.00;;;;;;6155490;23;20387;-58
2023/11/14 13:00:01;;;;;;;4.47;1.50;;;11.50;99.90;;;;;;6156167;23;20391;-59
2023/11/14 13:02:27;;;;;;;9.97;2.80;;;11.40;99.90;;;;;;6155601;23;20403;-59
2023/11/14 13:04:53;;;;;;;3.13;1.40;;;11.40;99.90;;;;;;6155368;23;20688;-59
2023/11/14 13:07:19;;;;;;;4.23;1.37;;;11.40;99.90;;;;;;6156098;23;20390;-56
2023/11/14 13:09:45;;;;;;;4.17;1.40;;;11.40;99.90;;;;;;6157363;23;20570;-59
2023/11/14 13:12:12;;;;;;;7.20;1.33;;;11.40;99.90;;;;;;6156791;23;20383;-56
2023/11/14 13:14:42;;;;;;;4.53;1.40;;;11.40;99.90;;;;;;6155269;23;20606;-57
2023/11/14 13:17:11;;;;;;;3.63;1.13;;;11.40;99.90;;;;;;6155477;23;20384;-56
2023/11/14 13:19:38;;;;;;;4.73;1.40;;;11.40;99.90;;;;;;6154886;23;20363;-57
2023/11/14 13:22:07;;;;;;;3.20;1.53;;;11.40;1.00;;;;;;6154252;23;20669;-59
2023/11/14 13:24:34;;;;;;;2.43;1.20;;;11.40;99.90;;;;;;6155518;23;20414;-57
2023/11/14 13:27:00;;;;;;;5.60;1.83;;;11.40;99.90;;;;;;6153174;23;20382;-56
2023/11/14 13:29:26;;;;;;;8.27;2.20;;;11.40;99.90;;;;;;6155125;23;20382;-56
2023/11/14 13:31:52;;;;;;;3.37;1.20;;;11.50;99.90;;;;;;6156860;23;20853;-57
2023/11/14 13:34:19;;;;;;;5.07;1.63;;;11.40;49.10;;;;;;6155433;23;20391;-58
2023/11/14 13:36:45;;;;;;;2.63;1.33;;;11.40;99.90;;;;;;6157493;23;20402;-57
2023/11/14 13:39:12;;;;;;;4.83;1.63;;;11.40;99.90;;;;;;6156687;23;20755;-57
2023/11/14 13:41:39;;;;;;;3.43;1.77;;;11.40;45.00;;;;;;6155278;23;20477;-55
2023/11/14 13:44:06;;;;;;;5.80;2.27;;;11.30;20.20;;;;;;6155738;23;20434;-56
2023/11/14 13:46:32;;;;;;;10.40;1.73;;;11.30;62.60;;;;;;6158110;23;20383;-55
2023/11/14 13:48:59;;;;;;;4.90;1.70;;;11.30;13.40;;;;;;6155148;23;20434;-58
2023/11/14 13:51:29;;;;;;;3.27;1.60;;;11.30;41.30;;;;;;6155166;23;20764;-58
2023/11/14 13:53:55;;;;;;;3.70;1.70;;;11.30;1.00;;;;;;6156246;23;20393;-59
2023/11/14 13:56:21;;;;;;;4.03;1.60;;;11.30;70.80;;;;;;6156503;23;20398;-55
2023/11/14 13:58:47;;;;;;;4.80;1.67;;;11.30;1.00;;;;;;6156491;23;20361;-57
2023/11/14 14:01:14;;;;;;;3.87;1.30;;;11.20;57.00;;;;;;6153996;23;20497;-56
2023/11/14 14:03:40;;;;;;;4.27;1.73;;;11.20;99.90;;;;;;6153694;23;20597;-58
2023/11/14 14:06:07;;;;;;;5.63;1.77;;;11.20;99.90;;;;;;6156727;23;20402;-56
2023/11/14 14:08:34;;;;;;;4.83;1.43;;;11.20;99.90;;;;;;6154893;23;20226;-57
2023/11/14 14:11:01;;;;;;;2.93;2.00;;;11.10;99.90;;;;;;6155396;23;20368;-56